sensor_id;sensor_type;location;lat;lon;timestamp;P1;durP1;ratioP1;P2;durP2;ratioP2
17251;SDS011;8742;51.716;8.790;2023-06-26T00:00:07;7.23;;;5.67;;
17251;SDS011;8742;51.716;8.790;2023-06-26T00:02:36;10.00;;;5.70;;
17251;SDS011;8742;51.716;8.790;2023-06-26T00:05:03;9.83;;;5.67;;
17251;SDS011;8742;51.716;8.790;2023-06-26T00:07:30;8.83;;;5.70;;
17251;SDS011;8742;51.716;8.790;2023-06-26T00:09:59;7.63;;;5.83;;
17251;SDS011;8742;51.716;8.790;2023-06-26T00:12:25;8.03;;;6.00;;
17251;SDS011;8742;51.716;8.790;2023-06-26T00:14:52;6.37;;;5.50;;
17251;SDS011;8742;51.716;8.790;2023-06-26T00:17:21;7.07;;;5.80;;
17251;SDS011;8742;51.716;8.790;2023-06-26T00:19:48;8.20;;;5.53;;
17251;SDS011;8742;51.716;8.790;2023-06-26T00:22:15;7.47;;;5.37;;
17251;SDS011;8742;51.716;8.790;2023-06-26T00:24:41;9.37;;;5.67;;
17251;SDS011;8742;51.716;8.790;2023-06-26T00:27:10;7.97;;;5.37;;
17251;SDS011;8742;51.716;8.790;2023-06-26T00:29:37;7.97;;;5.73;;
17251;SDS011;8742;51.716;8.790;2023-06-26T00:32:04;8.20;;;5.93;;
17251;SDS011;8742;51.716;8.790;2023-06-26T00:34:32;9.00;;;5.97;;
17251;SDS011;8742;51.716;8.790;2023-06-26T00:36:59;8.10;;;5.60;;
17251;SDS011;8742;51.716;8.790;2023-06-26T00:39:26;8.27;;;5.23;;
17251;SDS011;8742;51.716;8.790;2023-06-26T00:41:53;6.83;;;5.73;;
17251;SDS011;8742;51.716;8.790;2023-06-26T00:44:19;9.87;;;5.47;;
17251;SDS011;8742;51.716;8.790;2023-06-26T00:46:46;7.17;;;5.40;;
17251;SDS011;8742;51.716;8.790;2023-06-26T00:49:13;7.47;;;5.93;;
17251;SDS011;8742;51.716;8.790;2023-06-26T00:51:42;7.97;;;5.40;;
17251;SDS011;8742;51.716;8.790;2023-06-26T00:54:09;7.73;;;5.77;;
17251;SDS011;8742;51.716;8.790;2023-06-26T00:56:36;8.77;;;5.97;;
17251;SDS011;8742;51.716;8.790;2023-06-26T00:59:03;8.70;;;6.40;;
17251;SDS011;8742;51.716;8.790;2023-06-26T01:01:30;10.80;;;5.23;;
17251;SDS011;8742;51.716;8.790;2023-06-26T01:03:57;6.90;;;5.63;;
17251;SDS011;8742;51.716;8.790;2023-06-26T01:06:24;11.07;;;5.90;;
17251;SDS011;8742;51.716;8.790;2023-06-26T01:08:56;8.80;;;5.63;;
17251;SDS011;8742;51.716;8.790;2023-06-26T01:11:23;9.87;;;5.70;;
17251;SDS011;8742;51.716;8.790;2023-06-26T01:13:50;9.50;;;5.40;;
17251;SDS011;8742;51.716;8.790;2023-06-26T01:16:19;11.63;;;6.00;;
17251;SDS011;8742;51.716;8.790;2023-06-26T01:18:47;8.93;;;6.10;;
17251;SDS011;8742;51.716;8.790;2023-06-26T01:21:14;9.03;;;5.73;;
17251;SDS011;8742;51.716;8.790;2023-06-26T01:23:46;7.67;;;6.13;;
17251;SDS011;8742;51.716;8.790;2023-06-26T01:26:25;7.07;;;5.27;;
17251;SDS011;8742;51.716;8.790;2023-06-26T01:28:55;8.70;;;6.07;;
17251;SDS011;8742;51.716;8.790;2023-06-26T01:31:24;7.07;;;5.87;;
17251;SDS011;8742;51.716;8.790;2023-06-26T01:33:53;6.80;;;5.37;;
17251;SDS011;8742;51.716;8.790;2023-06-26T01:36:20;13.93;;;5.90;;
17251;SDS011;8742;51.716;8.790;2023-06-26T01:38:48;9.60;;;5.73;;
17251;SDS011;8742;51.716;8.790;2023-06-26T01:41:16;10.17;;;5.80;;
17251;SDS011;8742;51.716;8.790;2023-06-26T01:43:46;9.87;;;5.80;;
17251;SDS011;8742;51.716;8.790;2023-06-26T01:46:36;7.03;;;5.53;;
17251;SDS011;8742;51.716;8.790;2023-06-26T01:49:07;9.70;;;5.83;;
17251;SDS011;8742;51.716;8.790;2023-06-26T01:51:41;10.70;;;5.80;;
17251;SDS011;8742;51.716;8.790;2023-06-26T01:54:13;7.97;;;6.00;;
17251;SDS011;8742;51.716;8.790;2023-06-26T01:56:43;7.57;;;5.47;;
17251;SDS011;8742;51.716;8.790;2023-06-26T01:59:13;8.10;;;5.87;;
17251;SDS011;8742;51.716;8.790;2023-06-26T02:01:40;9.00;;;5.80;;
17251;SDS011;8742;51.716;8.790;2023-06-26T02:04:07;9.63;;;6.17;;
17251;SDS011;8742;51.716;8.790;2023-06-26T02:06:34;8.27;;;5.87;;
17251;SDS011;8742;51.716;8.790;2023-06-26T02:09:01;7.50;;;5.63;;
17251;SDS011;8742;51.716;8.790;2023-06-26T02:11:28;9.87;;;5.70;;
17251;SDS011;8742;51.716;8.790;2023-06-26T02:13:55;6.80;;;5.23;;
17251;SDS011;8742;51.716;8.790;2023-06-26T02:16:23;9.07;;;5.40;;
17251;SDS011;8742;51.716;8.790;2023-06-26T02:18:50;7.53;;;5.23;;
17251;SDS011;8742;51.716;8.790;2023-06-26T02:21:17;7.37;;;5.80;;
17251;SDS011;8742;51.716;8.790;2023-06-26T02:23:44;10.50;;;6.30;;
17251;SDS011;8742;51.716;8.790;2023-06-26T02:26:11;7.30;;;5.67;;
17251;SDS011;8742;51.716;8.790;2023-06-26T02:28:37;6.23;;;5.60;;
17251;SDS011;8742;51.716;8.790;2023-06-26T02:31:04;8.50;;;6.33;;
17251;SDS011;8742;51.716;8.790;2023-06-26T02:33:32;6.73;;;5.43;;
17251;SDS011;8742;51.716;8.790;2023-06-26T02:35:59;9.97;;;5.80;;
17251;SDS011;8742;51.716;8.790;2023-06-26T02:38:26;8.07;;;6.47;;
17251;SDS011;8742;51.716;8.790;2023-06-26T02:40:53;8.10;;;5.83;;
17251;SDS011;8742;51.716;8.790;2023-06-26T02:43:20;9.47;;;5.77;;
17251;SDS011;8742;51.716;8.790;2023-06-26T02:45:46;9.40;;;6.53;;
17251;SDS011;8742;51.716;8.790;2023-06-26T02:48:13;13.07;;;6.30;;
17251;SDS011;8742;51.716;8.790;2023-06-26T02:50:41;8.40;;;6.07;;
17251;SDS011;8742;51.716;8.790;2023-06-26T02:53:11;9.07;;;5.80;;
17251;SDS011;8742;51.716;8.790;2023-06-26T02:55:37;9.83;;;5.63;;
17251;SDS011;8742;51.716;8.790;2023-06-26T02:58:04;10.20;;;6.23;;
17251;SDS011;8742;51.716;8.790;2023-06-26T03:00:31;8.90;;;6.20;;
17251;SDS011;8742;51.716;8.790;2023-06-26T03:02:58;8.73;;;5.23;;
17251;SDS011;8742;51.716;8.790;2023-06-26T03:05:25;10.87;;;6.43;;
17251;SDS011;8742;51.716;8.790;2023-06-26T03:07:53;8.40;;;5.53;;
17251;SDS011;8742;51.716;8.790;2023-06-26T03:10:20;11.23;;;5.83;;
17251;SDS011;8742;51.716;8.790;2023-06-26T03:12:47;8.00;;;5.60;;
17251;SDS011;8742;51.716;8.790;2023-06-26T03:15:13;7.90;;;5.67;;
17251;SDS011;8742;51.716;8.790;2023-06-26T03:17:40;5.93;;;5.17;;
17251;SDS011;8742;51.716;8.790;2023-06-26T03:20:07;8.87;;;5.37;;
17251;SDS011;8742;51.716;8.790;2023-06-26T03:22:35;8.80;;;5.77;;
17251;SDS011;8742;51.716;8.790;2023-06-26T03:25:04;8.90;;;5.93;;
17251;SDS011;8742;51.716;8.790;2023-06-26T03:27:31;7.77;;;5.90;;
17251;SDS011;8742;51.716;8.790;2023-06-26T03:29:58;11.60;;;6.70;;
17251;SDS011;8742;51.716;8.790;2023-06-26T03:32:25;10.63;;;5.33;;
17251;SDS011;8742;51.716;8.790;2023-06-26T03:34:51;6.63;;;5.53;;
17251;SDS011;8742;51.716;8.790;2023-06-26T03:37:19;10.57;;;6.27;;
17251;SDS011;8742;51.716;8.790;2023-06-26T03:39:46;9.30;;;6.10;;
17251;SDS011;8742;51.716;8.790;2023-06-26T03:42:14;6.23;;;5.53;;
17251;SDS011;8742;51.716;8.790;2023-06-26T03:44:41;7.57;;;5.70;;
17251;SDS011;8742;51.716;8.790;2023-06-26T03:47:07;7.33;;;5.47;;
17251;SDS011;8742;51.716;8.790;2023-06-26T03:49:34;6.90;;;5.20;;
17251;SDS011;8742;51.716;8.790;2023-06-26T03:52:01;6.97;;;5.47;;
17251;SDS011;8742;51.716;8.790;2023-06-26T03:54:28;9.83;;;5.63;;
17251;SDS011;8742;51.716;8.790;2023-06-26T03:56:55;6.30;;;5.30;;
17251;SDS011;8742;51.716;8.790;2023-06-26T03:59:23;7.83;;;5.37;;
17251;SDS011;8742;51.716;8.790;2023-06-26T04:01:50;10.53;;;6.37;;
17251;SDS011;8742;51.716;8.790;2023-06-26T04:04:17;7.83;;;5.70;;
17251;SDS011;8742;51.716;8.790;2023-06-26T04:06:44;7.87;;;5.00;;
17251;SDS011;8742;51.716;8.790;2023-06-26T04:09:11;9.80;;;5.90;;
17251;SDS011;8742;51.716;8.790;2023-06-26T04:11:38;11.93;;;5.97;;
17251;SDS011;8742;51.716;8.790;2023-06-26T04:14:05;7.00;;;5.80;;
17251;SDS011;8742;51.716;8.790;2023-06-26T04:16:33;7.00;;;5.33;;
17251;SDS011;8742;51.716;8.790;2023-06-26T04:19:00;8.50;;;5.87;;
17251;SDS011;8742;51.716;8.790;2023-06-26T04:21:27;8.30;;;6.03;;
17251;SDS011;8742;51.716;8.790;2023-06-26T04:23:54;9.23;;;5.63;;
17251;SDS011;8742;51.716;8.790;2023-06-26T04:26:21;7.60;;;5.67;;
17251;SDS011;8742;51.716;8.790;2023-06-26T04:28:48;10.77;;;5.87;;
17251;SDS011;8742;51.716;8.790;2023-06-26T04:31:15;10.93;;;5.80;;
17251;SDS011;8742;51.716;8.790;2023-06-26T04:33:43;9.17;;;5.00;;
17251;SDS011;8742;51.716;8.790;2023-06-26T04:36:10;6.23;;;4.67;;
17251;SDS011;8742;51.716;8.790;2023-06-26T04:38:37;7.20;;;5.60;;
17251;SDS011;8742;51.716;8.790;2023-06-26T04:41:04;8.10;;;5.33;;
17251;SDS011;8742;51.716;8.790;2023-06-26T04:43:30;6.07;;;5.47;;
17251;SDS011;8742;51.716;8.790;2023-06-26T04:45:57;8.75;;;5.60;;
17251;SDS011;8742;51.716;8.790;2023-06-26T04:48:24;7.45;;;5.30;;
17251;SDS011;8742;51.716;8.790;2023-06-26T04:50:53;7.63;;;5.23;;
17251;SDS011;8742;51.716;8.790;2023-06-26T04:53:21;9.03;;;5.40;;
17251;SDS011;8742;51.716;8.790;2023-06-26T04:55:48;7.47;;;5.35;;
17251;SDS011;8742;51.716;8.790;2023-06-26T04:58:15;7.65;;;5.68;;
17251;SDS011;8742;51.716;8.790;2023-06-26T05:00:42;7.63;;;5.22;;
17251;SDS011;8742;51.716;8.790;2023-06-26T05:03:09;9.43;;;5.05;;
17251;SDS011;8742;51.716;8.790;2023-06-26T05:05:36;6.82;;;5.13;;
17251;SDS011;8742;51.716;8.790;2023-06-26T05:08:17;6.03;;;4.97;;
17251;SDS011;8742;51.716;8.790;2023-06-26T05:10:45;6.47;;;5.03;;
17251;SDS011;8742;51.716;8.790;2023-06-26T05:13:12;6.22;;;5.15;;
17251;SDS011;8742;51.716;8.790;2023-06-26T05:15:42;5.25;;;4.68;;
17251;SDS011;8742;51.716;8.790;2023-06-26T05:18:09;6.82;;;5.10;;
17251;SDS011;8742;51.716;8.790;2023-06-26T05:20:36;6.63;;;5.03;;
17251;SDS011;8742;51.716;8.790;2023-06-26T05:23:04;6.00;;;5.03;;
17251;SDS011;8742;51.716;8.790;2023-06-26T05:25:35;7.88;;;5.40;;
17251;SDS011;8742;51.716;8.790;2023-06-26T05:28:03;6.70;;;5.25;;
17251;SDS011;8742;51.716;8.790;2023-06-26T05:30:31;5.63;;;4.90;;
17251;SDS011;8742;51.716;8.790;2023-06-26T05:33:01;7.95;;;5.38;;
17251;SDS011;8742;51.716;8.790;2023-06-26T05:35:29;6.30;;;4.82;;
17251;SDS011;8742;51.716;8.790;2023-06-26T05:37:57;7.35;;;5.07;;
17251;SDS011;8742;51.716;8.790;2023-06-26T05:40:25;6.25;;;4.72;;
17251;SDS011;8742;51.716;8.790;2023-06-26T05:42:54;4.90;;;4.40;;
17251;SDS011;8742;51.716;8.790;2023-06-26T05:45:21;7.38;;;5.53;;
17251;SDS011;8742;51.716;8.790;2023-06-26T05:47:48;6.00;;;4.82;;
17251;SDS011;8742;51.716;8.790;2023-06-26T05:50:16;7.07;;;4.78;;
17251;SDS011;8742;51.716;8.790;2023-06-26T05:52:44;6.13;;;5.00;;
17251;SDS011;8742;51.716;8.790;2023-06-26T05:55:12;7.13;;;5.32;;
17251;SDS011;8742;51.716;8.790;2023-06-26T05:57:40;10.43;;;5.35;;
17251;SDS011;8742;51.716;8.790;2023-06-26T06:00:09;6.07;;;4.85;;
17251;SDS011;8742;51.716;8.790;2023-06-26T06:02:37;7.63;;;5.40;;
17251;SDS011;8742;51.716;8.790;2023-06-26T06:05:04;10.30;;;5.18;;
17251;SDS011;8742;51.716;8.790;2023-06-26T06:07:32;9.32;;;5.40;;
17251;SDS011;8742;51.716;8.790;2023-06-26T06:09:59;11.18;;;5.22;;
17251;SDS011;8742;51.716;8.790;2023-06-26T06:12:26;12.50;;;5.22;;
17251;SDS011;8742;51.716;8.790;2023-06-26T06:14:53;9.82;;;5.18;;
17251;SDS011;8742;51.716;8.790;2023-06-26T06:17:21;10.05;;;5.45;;
17251;SDS011;8742;51.716;8.790;2023-06-26T06:19:49;8.93;;;4.88;;
17251;SDS011;8742;51.716;8.790;2023-06-26T06:22:16;9.05;;;5.32;;
17251;SDS011;8742;51.716;8.790;2023-06-26T06:24:43;12.20;;;5.43;;
17251;SDS011;8742;51.716;8.790;2023-06-26T06:27:10;8.07;;;5.40;;
17251;SDS011;8742;51.716;8.790;2023-06-26T06:29:37;6.82;;;5.35;;
17251;SDS011;8742;51.716;8.790;2023-06-26T06:32:04;7.38;;;5.30;;
17251;SDS011;8742;51.716;8.790;2023-06-26T06:34:32;9.68;;;5.18;;
17251;SDS011;8742;51.716;8.790;2023-06-26T06:37:00;6.50;;;4.97;;
17251;SDS011;8742;51.716;8.790;2023-06-26T06:39:26;9.20;;;5.50;;
17251;SDS011;8742;51.716;8.790;2023-06-26T06:41:53;7.57;;;5.50;;
17251;SDS011;8742;51.716;8.790;2023-06-26T06:44:20;10.18;;;5.10;;
17251;SDS011;8742;51.716;8.790;2023-06-26T06:46:47;9.05;;;5.70;;
17251;SDS011;8742;51.716;8.790;2023-06-26T06:49:14;9.95;;;4.93;;
17251;SDS011;8742;51.716;8.790;2023-06-26T06:51:43;7.78;;;5.40;;
17251;SDS011;8742;51.716;8.790;2023-06-26T06:54:09;8.73;;;6.03;;
17251;SDS011;8742;51.716;8.790;2023-06-26T06:56:36;8.60;;;6.05;;
17251;SDS011;8742;51.716;8.790;2023-06-26T06:59:03;7.85;;;5.97;;
17251;SDS011;8742;51.716;8.790;2023-06-26T07:01:33;6.72;;;5.68;;
17251;SDS011;8742;51.716;8.790;2023-06-26T07:04:00;7.35;;;5.72;;
17251;SDS011;8742;51.716;8.790;2023-06-26T07:06:28;8.32;;;6.00;;
17251;SDS011;8742;51.716;8.790;2023-06-26T07:08:57;8.95;;;5.68;;
17251;SDS011;8742;51.716;8.790;2023-06-26T07:11:24;8.50;;;6.20;;
17251;SDS011;8742;51.716;8.790;2023-06-26T07:13:51;8.52;;;5.75;;
17251;SDS011;8742;51.716;8.790;2023-06-26T07:16:18;10.00;;;5.60;;
17251;SDS011;8742;51.716;8.790;2023-06-26T07:18:45;8.75;;;5.55;;
17251;SDS011;8742;51.716;8.790;2023-06-26T07:21:12;8.65;;;5.68;;
17251;SDS011;8742;51.716;8.790;2023-06-26T07:23:38;8.27;;;5.55;;
17251;SDS011;8742;51.716;8.790;2023-06-26T07:26:07;10.48;;;6.13;;
17251;SDS011;8742;51.716;8.790;2023-06-26T07:28:34;8.27;;;5.60;;
17251;SDS011;8742;51.716;8.790;2023-06-26T07:31:01;9.93;;;5.72;;
17251;SDS011;8742;51.716;8.790;2023-06-26T07:33:27;8.25;;;5.70;;
17251;SDS011;8742;51.716;8.790;2023-06-26T07:35:54;10.85;;;5.90;;
17251;SDS011;8742;51.716;8.790;2023-06-26T07:38:21;8.30;;;6.05;;
17251;SDS011;8742;51.716;8.790;2023-06-26T07:40:48;7.68;;;5.97;;
17251;SDS011;8742;51.716;8.790;2023-06-26T07:43:17;10.90;;;6.07;;
17251;SDS011;8742;51.716;8.790;2023-06-26T07:45:44;8.75;;;5.63;;
17251;SDS011;8742;51.716;8.790;2023-06-26T07:48:11;13.38;;;6.47;;
17251;SDS011;8742;51.716;8.790;2023-06-26T07:50:38;9.68;;;6.13;;
17251;SDS011;8742;51.716;8.790;2023-06-26T07:53:05;9.27;;;6.45;;
17251;SDS011;8742;51.716;8.790;2023-06-26T07:55:31;11.13;;;6.72;;
17251;SDS011;8742;51.716;8.790;2023-06-26T07:58:01;9.45;;;5.97;;
17251;SDS011;8742;51.716;8.790;2023-06-26T08:00:30;10.00;;;6.38;;
17251;SDS011;8742;51.716;8.790;2023-06-26T08:02:57;11.50;;;6.85;;
17251;SDS011;8742;51.716;8.790;2023-06-26T08:05:23;12.45;;;6.28;;
17251;SDS011;8742;51.716;8.790;2023-06-26T08:07:51;13.00;;;6.55;;
17251;SDS011;8742;51.716;8.790;2023-06-26T08:10:18;12.73;;;6.80;;
17251;SDS011;8742;51.716;8.790;2023-06-26T08:12:45;11.70;;;6.85;;
17251;SDS011;8742;51.716;8.790;2023-06-26T08:15:13;9.35;;;6.05;;
17251;SDS011;8742;51.716;8.790;2023-06-26T08:17:42;11.20;;;6.30;;
17251;SDS011;8742;51.716;8.790;2023-06-26T08:20:10;13.43;;;6.32;;
17251;SDS011;8742;51.716;8.790;2023-06-26T08:22:38;11.38;;;7.60;;
17251;SDS011;8742;51.716;8.790;2023-06-26T08:25:05;9.82;;;6.53;;
17251;SDS011;8742;51.716;8.790;2023-06-26T08:27:32;10.68;;;6.30;;
17251;SDS011;8742;51.716;8.790;2023-06-26T08:29:59;10.40;;;6.75;;
17251;SDS011;8742;51.716;8.790;2023-06-26T08:32:26;11.15;;;7.10;;
17251;SDS011;8742;51.716;8.790;2023-06-26T08:34:54;11.07;;;7.28;;
17251;SDS011;8742;51.716;8.790;2023-06-26T08:37:21;9.65;;;7.55;;
17251;SDS011;8742;51.716;8.790;2023-06-26T08:39:48;10.65;;;6.38;;
17251;SDS011;8742;51.716;8.790;2023-06-26T08:42:15;11.23;;;7.25;;
17251;SDS011;8742;51.716;8.790;2023-06-26T08:44:42;10.68;;;7.63;;
17251;SDS011;8742;51.716;8.790;2023-06-26T08:47:09;19.08;;;8.32;;
17251;SDS011;8742;51.716;8.790;2023-06-26T08:49:42;15.85;;;7.43;;
17251;SDS011;8742;51.716;8.790;2023-06-26T08:52:19;14.68;;;7.75;;
17251;SDS011;8742;51.716;8.790;2023-06-26T08:54:52;12.82;;;7.30;;
17251;SDS011;8742;51.716;8.790;2023-06-26T08:57:23;13.65;;;7.47;;
17251;SDS011;8742;51.716;8.790;2023-06-26T08:59:51;15.98;;;8.25;;
17251;SDS011;8742;51.716;8.790;2023-06-26T09:02:19;12.77;;;7.90;;
17251;SDS011;8742;51.716;8.790;2023-06-26T09:04:47;10.02;;;7.55;;
17251;SDS011;8742;51.716;8.790;2023-06-26T09:07:16;12.90;;;7.93;;
17251;SDS011;8742;51.716;8.790;2023-06-26T09:09:43;16.20;;;7.75;;
17251;SDS011;8742;51.716;8.790;2023-06-26T09:12:10;13.02;;;8.00;;
17251;SDS011;8742;51.716;8.790;2023-06-26T09:14:37;20.73;;;8.40;;
17251;SDS011;8742;51.716;8.790;2023-06-26T09:17:04;16.90;;;8.77;;
17251;SDS011;8742;51.716;8.790;2023-06-26T09:19:32;18.63;;;8.10;;
17251;SDS011;8742;51.716;8.790;2023-06-26T09:21:58;11.70;;;8.73;;
17251;SDS011;8742;51.716;8.790;2023-06-26T09:24:27;15.07;;;8.05;;
17251;SDS011;8742;51.716;8.790;2023-06-26T09:26:54;13.18;;;7.80;;
17251;SDS011;8742;51.716;8.790;2023-06-26T09:29:22;14.10;;;8.15;;
17251;SDS011;8742;51.716;8.790;2023-06-26T09:31:49;11.60;;;7.20;;
17251;SDS011;8742;51.716;8.790;2023-06-26T09:34:18;18.20;;;7.45;;
17251;SDS011;8742;51.716;8.790;2023-06-26T09:36:45;23.38;;;9.20;;
17251;SDS011;8742;51.716;8.790;2023-06-26T09:39:14;14.23;;;9.00;;
17251;SDS011;8742;51.716;8.790;2023-06-26T09:41:43;14.75;;;8.85;;
17251;SDS011;8742;51.716;8.790;2023-06-26T09:44:10;22.48;;;10.40;;
17251;SDS011;8742;51.716;8.790;2023-06-26T09:46:38;19.23;;;10.50;;
17251;SDS011;8742;51.716;8.790;2023-06-26T09:49:06;16.23;;;10.00;;
17251;SDS011;8742;51.716;8.790;2023-06-26T09:51:36;11.18;;;8.85;;
17251;SDS011;8742;51.716;8.790;2023-06-26T09:54:04;18.88;;;8.63;;
17251;SDS011;8742;51.716;8.790;2023-06-26T09:56:32;13.05;;;8.38;;
17251;SDS011;8742;51.716;8.790;2023-06-26T09:59:01;25.73;;;11.18;;
17251;SDS011;8742;51.716;8.790;2023-06-26T10:01:30;16.35;;;8.88;;
17251;SDS011;8742;51.716;8.790;2023-06-26T10:03:57;19.10;;;8.75;;
17251;SDS011;8742;51.716;8.790;2023-06-26T10:06:26;23.73;;;9.25;;
17251;SDS011;8742;51.716;8.790;2023-06-26T10:08:54;26.77;;;11.55;;
17251;SDS011;8742;51.716;8.790;2023-06-26T10:11:24;16.60;;;8.65;;
17251;SDS011;8742;51.716;8.790;2023-06-26T10:13:53;12.80;;;8.25;;
17251;SDS011;8742;51.716;8.790;2023-06-26T10:16:25;14.15;;;7.50;;
17251;SDS011;8742;51.716;8.790;2023-06-26T10:18:57;11.60;;;7.30;;
17251;SDS011;8742;51.716;8.790;2023-06-26T10:21:27;16.70;;;7.05;;
17251;SDS011;8742;51.716;8.790;2023-06-26T10:23:58;12.18;;;7.00;;
17251;SDS011;8742;51.716;8.790;2023-06-26T10:26:26;14.82;;;7.32;;
17251;SDS011;8742;51.716;8.790;2023-06-26T10:28:55;11.57;;;7.00;;
17251;SDS011;8742;51.716;8.790;2023-06-26T10:31:25;12.35;;;7.32;;
17251;SDS011;8742;51.716;8.790;2023-06-26T10:33:54;15.23;;;7.07;;
17251;SDS011;8742;51.716;8.790;2023-06-26T10:36:26;15.82;;;6.80;;
17251;SDS011;8742;51.716;8.790;2023-06-26T10:38:55;13.00;;;6.60;;
17251;SDS011;8742;51.716;8.790;2023-06-26T10:41:23;13.48;;;6.70;;
17251;SDS011;8742;51.716;8.790;2023-06-26T10:43:51;9.60;;;6.72;;
17251;SDS011;8742;51.716;8.790;2023-06-26T10:46:34;14.85;;;6.65;;
17251;SDS011;8742;51.716;8.790;2023-06-26T10:49:16;10.52;;;6.95;;
17251;SDS011;8742;51.716;8.790;2023-06-26T10:51:47;14.10;;;6.50;;
17251;SDS011;8742;51.716;8.790;2023-06-26T10:54:15;9.57;;;5.93;;
17251;SDS011;8742;51.716;8.790;2023-06-26T10:56:43;11.20;;;6.18;;
17251;SDS011;8742;51.716;8.790;2023-06-26T10:59:13;13.88;;;6.05;;
17251;SDS011;8742;51.716;8.790;2023-06-26T11:01:42;10.50;;;6.25;;
17251;SDS011;8742;51.716;8.790;2023-06-26T11:04:11;11.82;;;6.65;;
17251;SDS011;8742;51.716;8.790;2023-06-26T11:06:40;10.43;;;5.80;;
17251;SDS011;8742;51.716;8.790;2023-06-26T11:09:08;10.32;;;6.20;;
17251;SDS011;8742;51.716;8.790;2023-06-26T11:11:56;10.07;;;5.47;;
17251;SDS011;8742;51.716;8.790;2023-06-26T11:14:30;7.43;;;5.10;;
17251;SDS011;8742;51.716;8.790;2023-06-26T11:17:01;7.57;;;4.70;;
17251;SDS011;8742;51.716;8.790;2023-06-26T11:19:29;11.90;;;4.55;;
17251;SDS011;8742;51.716;8.790;2023-06-26T11:22:01;11.77;;;5.03;;
17251;SDS011;8742;51.716;8.790;2023-06-26T11:24:30;11.55;;;5.20;;
17251;SDS011;8742;51.716;8.790;2023-06-26T11:27:01;10.35;;;5.40;;
17251;SDS011;8742;51.716;8.790;2023-06-26T11:29:29;14.75;;;5.38;;
17251;SDS011;8742;51.716;8.790;2023-06-26T11:32:05;8.38;;;4.90;;
17251;SDS011;8742;51.716;8.790;2023-06-26T11:34:33;13.20;;;5.18;;
17251;SDS011;8742;51.716;8.790;2023-06-26T11:37:02;12.93;;;6.22;;
17251;SDS011;8742;51.716;8.790;2023-06-26T11:39:30;8.98;;;5.05;;
17251;SDS011;8742;51.716;8.790;2023-06-26T11:41:57;11.60;;;5.05;;
17251;SDS011;8742;51.716;8.790;2023-06-26T11:44:26;11.60;;;4.72;;
17251;SDS011;8742;51.716;8.790;2023-06-26T11:47:07;4.82;;;3.80;;
17251;SDS011;8742;51.716;8.790;2023-06-26T11:49:37;10.30;;;4.95;;
17251;SDS011;8742;51.716;8.790;2023-06-26T11:52:05;9.23;;;4.10;;
17251;SDS011;8742;51.716;8.790;2023-06-26T11:54:32;7.00;;;3.80;;
17251;SDS011;8742;51.716;8.790;2023-06-26T11:57:00;7.95;;;4.05;;
17251;SDS011;8742;51.716;8.790;2023-06-26T11:59:32;10.10;;;4.63;;
17251;SDS011;8742;51.716;8.790;2023-06-26T12:02:00;7.70;;;3.90;;
17251;SDS011;8742;51.716;8.790;2023-06-26T12:04:36;11.05;;;4.53;;
17251;SDS011;8742;51.716;8.790;2023-06-26T12:07:05;9.10;;;4.32;;
17251;SDS011;8742;51.716;8.790;2023-06-26T12:09:34;11.90;;;4.43;;
17251;SDS011;8742;51.716;8.790;2023-06-26T12:12:05;8.07;;;4.35;;
17251;SDS011;8742;51.716;8.790;2023-06-26T12:14:37;9.98;;;4.53;;
17251;SDS011;8742;51.716;8.790;2023-06-26T12:17:08;6.03;;;3.60;;
17251;SDS011;8742;51.716;8.790;2023-06-26T12:19:38;9.65;;;4.00;;
17251;SDS011;8742;51.716;8.790;2023-06-26T12:22:06;7.38;;;3.75;;
17251;SDS011;8742;51.716;8.790;2023-06-26T12:24:35;12.68;;;3.92;;
17251;SDS011;8742;51.716;8.790;2023-06-26T12:27:07;7.78;;;4.13;;
17251;SDS011;8742;51.716;8.790;2023-06-26T12:29:35;6.82;;;3.75;;
17251;SDS011;8742;51.716;8.790;2023-06-26T12:32:08;5.85;;;4.10;;
17251;SDS011;8742;51.716;8.790;2023-06-26T12:34:38;6.18;;;3.60;;
17251;SDS011;8742;51.716;8.790;2023-06-26T12:37:06;8.63;;;3.80;;
17251;SDS011;8742;51.716;8.790;2023-06-26T12:39:45;3.60;;;3.13;;
17251;SDS011;8742;51.716;8.790;2023-06-26T12:42:13;8.27;;;4.03;;
17251;SDS011;8742;51.716;8.790;2023-06-26T12:44:41;9.43;;;3.83;;
17251;SDS011;8742;51.716;8.790;2023-06-26T12:47:08;6.50;;;3.35;;
17251;SDS011;8742;51.716;8.790;2023-06-26T12:49:39;7.95;;;2.90;;
17251;SDS011;8742;51.716;8.790;2023-06-26T12:52:10;6.07;;;3.38;;
17251;SDS011;8742;51.716;8.790;2023-06-26T12:54:38;7.72;;;3.40;;
17251;SDS011;8742;51.716;8.790;2023-06-26T12:57:06;8.35;;;3.10;;
17251;SDS011;8742;51.716;8.790;2023-06-26T12:59:36;5.55;;;3.17;;
17251;SDS011;8742;51.716;8.790;2023-06-26T13:02:04;3.45;;;2.88;;
17251;SDS011;8742;51.716;8.790;2023-06-26T13:04:33;4.15;;;2.58;;
17251;SDS011;8742;51.716;8.790;2023-06-26T13:07:05;6.13;;;2.90;;
17251;SDS011;8742;51.716;8.790;2023-06-26T13:09:32;5.22;;;2.95;;
17251;SDS011;8742;51.716;8.790;2023-06-26T13:12:02;7.80;;;3.15;;
17251;SDS011;8742;51.716;8.790;2023-06-26T13:14:29;6.85;;;2.88;;
17251;SDS011;8742;51.716;8.790;2023-06-26T13:16:56;9.38;;;3.17;;
17251;SDS011;8742;51.716;8.790;2023-06-26T13:19:23;8.80;;;2.80;;
17251;SDS011;8742;51.716;8.790;2023-06-26T13:21:52;5.55;;;2.72;;
17251;SDS011;8742;51.716;8.790;2023-06-26T13:24:19;4.50;;;2.83;;
17251;SDS011;8742;51.716;8.790;2023-06-26T13:26:46;5.47;;;3.05;;
17251;SDS011;8742;51.716;8.790;2023-06-26T13:29:13;11.55;;;2.80;;
17251;SDS011;8742;51.716;8.790;2023-06-26T13:31:41;5.50;;;2.92;;
17251;SDS011;8742;51.716;8.790;2023-06-26T13:34:08;6.07;;;2.90;;
17251;SDS011;8742;51.716;8.790;2023-06-26T13:36:35;6.47;;;2.75;;
17251;SDS011;8742;51.716;8.790;2023-06-26T13:39:04;4.25;;;2.95;;
17251;SDS011;8742;51.716;8.790;2023-06-26T13:41:32;4.35;;;3.08;;
17251;SDS011;8742;51.716;8.790;2023-06-26T13:43:59;8.57;;;2.97;;
17251;SDS011;8742;51.716;8.790;2023-06-26T13:46:26;10.88;;;3.20;;
17251;SDS011;8742;51.716;8.790;2023-06-26T13:48:52;4.72;;;3.08;;
17251;SDS011;8742;51.716;8.790;2023-06-26T13:51:19;5.20;;;3.13;;
17251;SDS011;8742;51.716;8.790;2023-06-26T13:53:46;4.65;;;2.78;;
17251;SDS011;8742;51.716;8.790;2023-06-26T13:56:14;5.35;;;3.03;;
17251;SDS011;8742;51.716;8.790;2023-06-26T13:58:41;8.90;;;2.95;;
17251;SDS011;8742;51.716;8.790;2023-06-26T14:01:08;9.40;;;3.42;;
17251;SDS011;8742;51.716;8.790;2023-06-26T14:03:35;8.48;;;2.90;;
17251;SDS011;8742;51.716;8.790;2023-06-26T14:06:02;7.07;;;3.28;;
17251;SDS011;8742;51.716;8.790;2023-06-26T14:08:29;5.20;;;2.92;;
17251;SDS011;8742;51.716;8.790;2023-06-26T14:10:56;6.75;;;2.75;;
17251;SDS011;8742;51.716;8.790;2023-06-26T14:13:24;5.97;;;3.40;;
17251;SDS011;8742;51.716;8.790;2023-06-26T14:15:51;5.28;;;3.25;;
17251;SDS011;8742;51.716;8.790;2023-06-26T14:18:17;6.65;;;3.28;;
17251;SDS011;8742;51.716;8.790;2023-06-26T14:20:45;6.88;;;3.47;;
17251;SDS011;8742;51.716;8.790;2023-06-26T14:23:13;7.47;;;3.03;;
17251;SDS011;8742;51.716;8.790;2023-06-26T14:25:39;3.90;;;2.75;;
17251;SDS011;8742;51.716;8.790;2023-06-26T14:28:06;6.22;;;2.92;;
17251;SDS011;8742;51.716;8.790;2023-06-26T14:30:34;6.28;;;2.72;;
17251;SDS011;8742;51.716;8.790;2023-06-26T14:33:01;10.18;;;2.35;;
17251;SDS011;8742;51.716;8.790;2023-06-26T14:35:28;4.55;;;2.72;;
17251;SDS011;8742;51.716;8.790;2023-06-26T14:37:55;8.93;;;2.55;;
17251;SDS011;8742;51.716;8.790;2023-06-26T14:40:22;5.32;;;2.75;;
17251;SDS011;8742;51.716;8.790;2023-06-26T14:42:48;9.75;;;2.40;;
17251;SDS011;8742;51.716;8.790;2023-06-26T14:45:15;7.85;;;2.35;;
17251;SDS011;8742;51.716;8.790;2023-06-26T14:47:43;4.90;;;2.40;;
17251;SDS011;8742;51.716;8.790;2023-06-26T14:50:10;3.78;;;2.13;;
17251;SDS011;8742;51.716;8.790;2023-06-26T14:52:37;4.13;;;1.75;;
17251;SDS011;8742;51.716;8.790;2023-06-26T14:55:04;4.25;;;1.90;;
17251;SDS011;8742;51.716;8.790;2023-06-26T14:57:31;5.97;;;1.95;;
17251;SDS011;8742;51.716;8.790;2023-06-26T14:59:58;2.30;;;1.67;;
17251;SDS011;8742;51.716;8.790;2023-06-26T15:02:25;2.78;;;1.83;;